createdAt,value
2019-04-28T00:02:26.926Z,11.43
2019-04-28T00:04:55.449Z,11.38
2019-04-28T00:07:24.074Z,13.83
2019-04-28T00:09:52.696Z,12.40
2019-04-28T00:12:22.976Z,10.55
2019-04-28T00:14:51.723Z,12.00
2019-04-28T00:17:21.160Z,12.88
2019-04-28T00:19:51.466Z,11.18
2019-04-28T00:22:21.723Z,11.88
2019-04-28T00:24:51.918Z,11.23
2019-04-28T00:27:21.629Z,12.25
2019-04-28T00:29:51.855Z,13.25
2019-04-28T00:32:21.100Z,14.35
2019-04-28T00:34:51.153Z,15.60
2019-04-28T00:37:24.273Z,14.73
2019-04-28T00:39:52.852Z,16.63
2019-04-28T00:42:22.754Z,15.88
2019-04-28T00:44:51.602Z,14.15
2019-04-28T00:47:21.089Z,15.65
2019-04-28T00:49:51.780Z,16.20
2019-04-28T00:52:22.093Z,16.67
2019-04-28T00:54:52.609Z,16.17
2019-04-28T00:57:21.513Z,16.12
2019-04-28T00:59:55.104Z,16.02
2019-04-28T01:02:32.074Z,17.27
2019-04-28T01:05:01.509Z,17.73
2019-04-28T01:07:31.289Z,18.32
2019-04-28T01:10:01.491Z,19.35
2019-04-28T01:12:31.080Z,17.53
2019-04-28T01:15:04.048Z,18.85
2019-04-28T01:17:46.732Z,17.90
2019-04-28T01:20:19.567Z,19.63
2019-04-28T01:22:49.660Z,22.15
2019-04-28T01:25:20.182Z,20.53
2019-04-28T01:27:50.722Z,18.37
2019-04-28T01:30:24.551Z,18.60
2019-04-28T01:33:03.806Z,18.75
2019-04-28T01:35:32.479Z,20.37
2019-04-28T01:38:01.162Z,19.63
2019-04-28T01:40:30.455Z,19.98
2019-04-28T01:42:59.796Z,19.13
2019-04-28T01:45:30.006Z,20.82
2019-04-28T01:48:00.506Z,17.60
2019-04-28T01:50:29.946Z,19.77
2019-04-28T01:52:59.787Z,20.00
2019-04-28T01:55:29.625Z,22.33
2019-04-28T01:57:59.639Z,20.27
2019-04-28T02:00:47.634Z,21.12
2019-04-28T02:03:16.976Z,21.17
2019-04-28T02:05:45.634Z,19.37
2019-04-28T02:08:14.194Z,20.57
2019-04-28T02:10:42.751Z,20.33
2019-04-28T02:13:11.473Z,21.35
2019-04-28T02:15:40.153Z,24.13
2019-04-28T02:18:09.961Z,21.13
2019-04-28T02:20:40.180Z,20.60
2019-04-28T02:23:13.394Z,22.10
2019-04-28T02:25:41.939Z,22.47
2019-04-28T02:28:11.891Z,23.83
2019-04-28T02:30:48.902Z,21.40
2019-04-28T02:33:11.228Z,24.37
2019-04-28T02:35:41.880Z,25.00
2019-04-28T02:38:11.489Z,21.93
2019-04-28T02:40:40.744Z,27.67
2019-04-28T02:43:11.442Z,25.92
2019-04-28T02:45:41.195Z,25.57
2019-04-28T02:48:11.725Z,22.47
2019-04-28T02:50:45.008Z,22.63
2019-04-28T02:53:20.874Z,22.47
2019-04-28T02:55:51.222Z,26.60
2019-04-28T02:58:22.451Z,24.70
2019-04-28T03:01:03.896Z,23.33
2019-04-28T03:03:21.374Z,23.98
2019-04-28T03:05:51.179Z,23.05
2019-04-28T03:08:21.402Z,22.03
2019-04-28T03:10:50.882Z,20.90
2019-04-28T03:13:20.984Z,23.12
2019-04-28T03:15:51.551Z,24.47
2019-04-28T03:18:21.421Z,24.20
2019-04-28T03:20:51.502Z,22.93
2019-04-28T03:23:20.892Z,22.48
2019-04-28T03:25:57.131Z,23.30
2019-04-28T03:28:42.484Z,22.40
2019-04-28T03:31:55.291Z,21.68
2019-04-28T03:33:55.737Z,24.77
2019-04-28T03:36:23.530Z,23.50
2019-04-28T03:38:53.099Z,23.50
2019-04-28T03:41:21.978Z,23.95
2019-04-28T03:43:51.584Z,22.35
2019-04-28T03:46:21.825Z,21.13
2019-04-28T03:48:50.980Z,21.73
2019-04-28T03:51:21.160Z,21.20
2019-04-28T03:53:50.735Z,21.17
2019-04-28T03:56:20.971Z,20.37
2019-04-28T03:58:50.478Z,21.30
2019-04-28T04:01:20.705Z,20.30
2019-04-28T04:03:51.606Z,20.05
2019-04-28T04:06:22.383Z,22.45
2019-04-28T04:08:50.636Z,21.07
2019-04-28T04:11:31.189Z,19.92
2019-04-28T04:14:01.854Z,21.48
2019-04-28T04:16:40.457Z,21.73
2019-04-28T04:19:10.729Z,20.02
2019-04-28T04:21:40.683Z,25.40
2019-04-28T04:24:10.857Z,19.48
2019-04-28T04:26:40.998Z,20.23
2019-04-28T04:29:10.255Z,19.57
2019-04-28T04:31:41.251Z,20.73
2019-04-28T04:34:10.649Z,16.57
2019-04-28T04:36:41.663Z,17.60
2019-04-28T04:39:10.856Z,18.17
2019-04-28T04:41:42.962Z,16.10
2019-04-28T04:44:11.192Z,18.10
2019-04-28T04:46:41.438Z,17.13
2019-04-28T04:49:10.757Z,17.70
2019-04-28T04:51:43.437Z,16.55
2019-04-28T04:54:10.847Z,16.07
2019-04-28T04:56:40.107Z,16.03
2019-04-28T04:59:10.255Z,17.17
2019-04-28T05:01:40.892Z,13.85
2019-04-28T05:04:29.709Z,15.10
2019-04-28T05:06:59.698Z,13.70
2019-04-28T05:09:29.550Z,14.33
2019-04-28T05:11:59.770Z,15.00
2019-04-28T05:14:29.880Z,16.00
2019-04-28T05:16:58.491Z,14.63
2019-04-28T05:19:27.098Z,16.57
2019-04-28T05:21:55.658Z,15.60
2019-04-28T05:24:34.716Z,15.13
2019-04-28T05:27:03.498Z,17.03
2019-04-28T05:29:32.387Z,17.12
2019-04-28T05:32:03.325Z,15.00
2019-04-28T05:34:31.334Z,17.77
2019-04-28T05:37:00.714Z,17.95
2019-04-28T05:39:29.825Z,17.83
2019-04-28T05:42:00.644Z,17.00
2019-04-28T05:44:29.939Z,18.03
2019-04-28T05:46:59.529Z,18.17
2019-04-28T05:49:29.931Z,17.37
2019-04-28T05:52:12.211Z,17.27
2019-04-28T05:54:59.806Z,19.73
2019-04-28T05:57:30.595Z,18.30
2019-04-28T06:00:13.220Z,16.82
2019-04-28T06:02:54.089Z,15.97
2019-04-28T06:05:16.401Z,17.60
2019-04-28T06:08:02.898Z,18.03
2019-04-28T06:10:31.529Z,18.57
2019-04-28T06:13:00.117Z,18.00
2019-04-28T06:15:29.476Z,19.57
2019-04-28T06:18:00.016Z,17.40
2019-04-28T06:20:30.310Z,17.20
2019-04-28T06:22:59.009Z,16.75
2019-04-28T06:25:28.899Z,18.60
2019-04-28T06:27:57.517Z,16.57
2019-04-28T06:30:27.770Z,17.50
2019-04-28T06:33:07.175Z,16.93
2019-04-28T06:35:26.541Z,18.37
2019-04-28T06:37:55.166Z,20.27
2019-04-28T06:40:23.739Z,14.95
2019-04-28T06:42:52.409Z,16.10
2019-04-28T06:45:22.393Z,14.65
2019-04-28T06:47:53.769Z,16.48
2019-04-28T06:50:28.734Z,16.60
2019-04-28T06:52:59.086Z,16.27
2019-04-28T06:55:33.433Z,15.43
2019-04-28T06:57:59.784Z,16.00
2019-04-28T07:00:28.748Z,14.35
2019-04-28T07:02:59.003Z,14.60
2019-04-28T07:05:30.855Z,13.80
2019-04-28T07:07:59.765Z,14.58
2019-04-28T07:10:28.296Z,12.85
2019-04-28T07:13:00.128Z,13.05
2019-04-28T07:15:28.778Z,13.40
2019-04-28T07:17:57.813Z,12.95
2019-04-28T07:20:33.605Z,13.40
2019-04-28T07:23:02.218Z,12.35
2019-04-28T07:25:31.579Z,13.77
2019-04-28T07:28:00.126Z,11.35
2019-04-28T07:30:29.428Z,13.86
2019-04-28T07:32:58.016Z,10.80
2019-04-28T07:35:26.635Z,13.80
2019-04-28T07:37:55.281Z,11.07
2019-04-28T07:40:23.837Z,12.25
2019-04-28T07:42:52.398Z,12.20
2019-04-28T07:45:21.066Z,12.37
2019-04-28T07:47:49.688Z,11.15
2019-04-28T07:50:18.279Z,12.85
2019-04-28T07:52:57.012Z,10.50
2019-04-28T07:55:25.565Z,11.08
2019-04-28T07:57:54.138Z,14.78
2019-04-28T08:00:27.125Z,10.80
2019-04-28T08:02:55.679Z,9.95
2019-04-28T08:05:24.319Z,12.47
2019-04-28T08:07:52.899Z,9.60
2019-04-28T08:10:21.454Z,9.75
2019-04-28T08:12:50.081Z,12.00
2019-04-28T08:15:18.757Z,10.47
2019-04-28T08:17:47.425Z,10.70
2019-04-28T08:20:16.221Z,9.60
2019-04-28T08:22:44.806Z,10.05
2019-04-28T08:25:13.435Z,9.70
2019-04-28T08:27:42.009Z,9.00
2019-04-28T08:30:10.929Z,10.10
2019-04-28T08:32:43.815Z,9.80
2019-04-28T08:35:12.812Z,10.03
2019-04-28T08:37:41.447Z,10.67
2019-04-28T08:40:10.082Z,9.95
2019-04-28T08:42:39.313Z,9.72
2019-04-28T08:45:08.789Z,10.95
2019-04-28T08:47:37.294Z,10.20
2019-04-28T08:50:07.208Z,10.25
2019-04-28T08:52:35.860Z,10.18
2019-04-28T08:55:06.366Z,10.68
2019-04-28T08:57:34.936Z,11.45
2019-04-28T09:00:05.911Z,10.67
2019-04-28T09:02:53.919Z,9.33
2019-04-28T09:05:22.486Z,9.00
2019-04-28T09:07:51.282Z,8.30
2019-04-28T09:10:19.889Z,9.73
2019-04-28T09:12:48.468Z,8.95
2019-04-28T09:15:17.149Z,11.13
2019-04-28T09:17:45.720Z,8.70
2019-04-28T09:20:14.817Z,9.78
2019-04-28T09:22:43.688Z,11.90
2019-04-28T09:25:12.324Z,10.82
2019-04-28T09:27:40.967Z,9.43
2019-04-28T09:30:09.889Z,10.65
2019-04-28T09:32:39.270Z,11.83
2019-04-28T09:35:08.377Z,10.95
2019-04-28T09:37:37.052Z,9.73
2019-04-28T09:40:17.316Z,11.57
2019-04-28T09:42:47.636Z,10.63
2019-04-28T09:45:17.956Z,13.50
2019-04-28T09:47:46.552Z,9.78
2019-04-28T09:50:15.192Z,11.75
2019-04-28T09:52:48.495Z,13.35
2019-04-28T09:55:15.794Z,16.73
2019-04-28T09:57:44.359Z,13.80
2019-04-28T10:00:13.322Z,13.30
2019-04-28T10:02:41.980Z,16.52
2019-04-28T10:05:10.995Z,24.72
2019-04-28T10:07:39.697Z,15.90
2019-04-28T10:10:09.114Z,17.07
2019-04-28T10:12:50.091Z,16.15
2019-04-28T10:15:18.499Z,20.25
2019-04-28T10:17:47.143Z,28.10
2019-04-28T10:20:18.231Z,18.87
2019-04-28T10:22:47.204Z,20.43
2019-04-28T10:25:16.123Z,16.32
2019-04-28T10:27:44.825Z,18.95
2019-04-28T10:30:14.364Z,18.25
2019-04-28T10:32:42.986Z,22.58
2019-04-28T10:35:11.810Z,19.40
2019-04-28T10:37:41.216Z,19.97
2019-04-28T10:40:11.971Z,20.77
2019-04-28T10:42:40.624Z,20.92
2019-04-28T10:45:11.009Z,21.10
2019-04-28T10:47:40.319Z,19.94
2019-04-28T10:50:09.217Z,19.20
2019-04-28T10:52:37.811Z,20.15
2019-04-28T10:55:06.793Z,53.90
2019-04-28T10:57:35.354Z,21.15
2019-04-28T11:00:24.957Z,24.00
2019-04-28T11:02:53.582Z,52.95
2019-04-28T11:05:23.802Z,27.10
2019-04-28T11:07:53.569Z,21.77
2019-04-28T11:10:22.166Z,23.38
2019-04-28T11:12:50.763Z,23.90
2019-04-28T11:15:21.146Z,24.07
2019-04-28T11:17:49.761Z,22.07
2019-04-28T11:20:18.333Z,22.77
2019-04-28T11:22:47.130Z,23.22
2019-04-28T11:25:15.677Z,27.50
2019-04-28T11:27:44.314Z,25.10
2019-04-28T11:30:14.308Z,23.05
2019-04-28T11:32:44.503Z,27.17
2019-04-28T11:35:30.520Z,26.25
2019-04-28T11:37:59.122Z,28.50
2019-04-28T11:40:27.776Z,35.88
2019-04-28T11:42:57.655Z,38.73
2019-04-28T11:45:27.103Z,31.75
2019-04-28T11:47:55.786Z,27.40
2019-04-28T11:50:24.360Z,27.52
2019-04-28T11:52:53.123Z,35.40
2019-04-28T11:55:21.809Z,30.57
2019-04-28T11:57:51.292Z,36.10
2019-04-28T12:00:21.839Z,29.80
2019-04-28T12:02:50.531Z,36.93
2019-04-28T12:05:33.639Z,28.02
2019-04-28T12:07:51.369Z,33.30
2019-04-28T12:10:38.131Z,24.70
2019-04-28T12:13:14.452Z,25.90
2019-04-28T12:15:44.789Z,27.65
2019-04-28T12:18:31.891Z,24.23
2019-04-28T12:21:03.381Z,25.97
2019-04-28T12:23:31.941Z,22.58
2019-04-28T12:26:00.543Z,23.15
2019-04-28T12:28:29.159Z,22.93
2019-04-28T12:30:57.717Z,34.43
2019-04-28T12:33:26.566Z,24.93
2019-04-28T12:35:55.234Z,24.18
2019-04-28T12:38:23.951Z,26.70
2019-04-28T12:40:52.584Z,24.25
2019-04-28T12:43:21.224Z,22.25
2019-04-28T12:45:50.601Z,20.85
2019-04-28T12:48:19.251Z,22.67
2019-04-28T12:50:51.976Z,20.07
2019-04-28T12:53:20.625Z,20.27
2019-04-28T12:55:49.211Z,24.67
2019-04-28T12:58:17.848Z,39.80
2019-04-28T13:01:04.409Z,24.82
2019-04-28T13:03:34.660Z,19.95
2019-04-28T13:06:05.915Z,20.20
2019-04-28T13:08:34.681Z,29.35
2019-04-28T13:11:03.315Z,29.50
2019-04-28T13:13:31.889Z,21.12
2019-04-28T13:16:00.440Z,21.62
2019-04-28T13:18:29.032Z,26.00
2019-04-28T13:20:59.045Z,25.85
2019-04-28T13:23:27.758Z,25.77
2019-04-28T13:25:56.366Z,20.45
2019-04-28T13:28:24.934Z,20.33
2019-04-28T13:30:53.426Z,22.00
2019-04-28T13:33:22.134Z,28.66
2019-04-28T13:35:50.707Z,18.52
2019-04-28T13:38:19.261Z,30.60
2019-04-28T13:40:47.935Z,21.65
2019-04-28T13:43:16.522Z,20.48
2019-04-28T13:45:45.081Z,17.87
2019-04-28T13:48:14.598Z,18.65
2019-04-28T13:50:43.144Z,21.82
2019-04-28T13:53:11.780Z,24.60
2019-04-28T13:55:48.867Z,31.95
2019-04-28T13:58:19.054Z,29.32
2019-04-28T14:00:49.838Z,43.80
2019-04-28T14:03:20.230Z,29.48
2019-04-28T14:05:50.516Z,23.22
2019-04-28T14:08:19.106Z,26.90
2019-04-28T14:10:47.701Z,31.07
2019-04-28T14:13:16.371Z,38.83
2019-04-28T14:15:48.259Z,64.60
2019-04-28T14:18:15.444Z,49.90
2019-04-28T14:20:44.028Z,23.40
2019-04-28T14:23:12.698Z,17.60
2019-04-28T14:25:41.295Z,16.45
2019-04-28T14:28:09.923Z,20.77
2019-04-28T14:30:38.762Z,21.37
2019-04-28T14:33:07.453Z,25.27
2019-04-28T14:35:36.139Z,26.10
2019-04-28T14:38:04.776Z,15.00
2019-04-28T14:40:33.604Z,15.53
2019-04-28T14:43:02.236Z,15.83
2019-04-28T14:45:31.181Z,86.08
2019-04-28T14:47:59.851Z,76.95
2019-04-28T14:50:28.498Z,26.90
2019-04-28T14:52:57.116Z,21.65
2019-04-28T14:55:45.044Z,18.20
2019-04-28T14:58:13.589Z,19.50
2019-04-28T15:00:46.718Z,16.27
2019-04-28T15:03:16.574Z,13.80
2019-04-28T15:05:49.248Z,14.55
2019-04-28T15:08:28.710Z,13.28
2019-04-28T15:11:04.988Z,12.88
2019-04-28T15:13:35.087Z,14.68
2019-04-28T15:16:03.776Z,13.52
2019-04-28T15:18:32.367Z,13.95
2019-04-28T15:21:01.009Z,12.60
2019-04-28T15:23:29.567Z,12.28
2019-04-28T15:25:58.143Z,13.62
2019-04-28T15:28:26.694Z,15.23
2019-04-28T15:30:55.279Z,11.38
2019-04-28T15:33:23.866Z,11.97
2019-04-28T15:35:52.559Z,14.07
2019-04-28T15:38:21.208Z,10.43
2019-04-28T15:40:49.777Z,14.87
2019-04-28T15:43:18.335Z,11.93
2019-04-28T15:45:47.325Z,11.65
2019-04-28T15:48:15.981Z,9.63
2019-04-28T15:50:45.216Z,13.10
2019-04-28T15:53:13.798Z,11.25
2019-04-28T15:55:47.365Z,10.20
2019-04-28T15:58:34.844Z,13.83
2019-04-28T16:01:03.505Z,10.98
2019-04-28T16:03:32.259Z,14.95
2019-04-28T16:06:00.952Z,10.27
2019-04-28T16:08:29.527Z,15.48
2019-04-28T16:10:58.197Z,14.30
2019-04-28T16:13:26.818Z,11.75
2019-04-28T16:15:56.367Z,15.55
2019-04-28T16:18:26.673Z,13.90
2019-04-28T16:20:55.153Z,13.45
2019-04-28T16:23:23.869Z,10.10
2019-04-28T16:25:52.531Z,13.10
2019-04-28T16:28:21.164Z,14.87
2019-04-28T16:30:49.768Z,15.28
2019-04-28T16:33:18.331Z,13.23
2019-04-28T16:35:46.870Z,17.62
2019-04-28T16:38:15.427Z,15.90
2019-04-28T16:40:44.458Z,14.50
2019-04-28T16:43:15.030Z,15.13
2019-04-28T16:45:43.600Z,13.97
2019-04-28T16:48:12.279Z,13.05
2019-04-28T16:50:40.853Z,12.60
2019-04-28T16:53:09.475Z,15.08
2019-04-28T16:55:42.646Z,14.73
2019-04-28T16:58:15.773Z,13.98
2019-04-28T17:00:57.939Z,16.90
2019-04-28T17:03:28.234Z,12.43
2019-04-28T17:05:56.853Z,14.37
2019-04-28T17:08:25.470Z,14.90
2019-04-28T17:10:53.998Z,15.10
2019-04-28T17:13:22.731Z,16.77
2019-04-28T17:15:51.348Z,14.13
2019-04-28T17:18:19.874Z,16.70
2019-04-28T17:20:48.483Z,20.43
2019-04-28T17:23:17.182Z,32.00
2019-04-28T17:25:45.780Z,34.65
2019-04-28T17:28:17.316Z,20.50
2019-04-28T17:30:45.888Z,22.60
2019-04-28T17:33:15.120Z,22.77
2019-04-28T17:35:43.647Z,22.87
2019-04-28T17:38:12.188Z,21.17
2019-04-28T17:40:40.939Z,22.35
2019-04-28T17:43:09.686Z,20.20
2019-04-28T17:45:38.337Z,25.17
2019-04-28T17:48:20.371Z,18.90
2019-04-28T17:50:49.014Z,19.73
2019-04-28T17:53:17.569Z,23.83
2019-04-28T17:55:46.203Z,22.58
2019-04-28T17:58:14.903Z,18.75
2019-04-28T18:00:45.134Z,19.13
2019-04-28T18:03:17.389Z,17.70
2019-04-28T18:05:47.782Z,20.23
2019-04-28T18:08:21.075Z,18.42
2019-04-28T18:10:46.671Z,20.07
2019-04-28T18:13:15.302Z,21.95
2019-04-28T18:15:46.701Z,21.50
2019-04-28T18:18:22.734Z,18.95
2019-04-28T18:20:51.316Z,22.05
2019-04-28T18:23:19.924Z,18.65
2019-04-28T18:25:48.531Z,20.43
2019-04-28T18:28:17.103Z,23.20
2019-04-28T18:30:47.294Z,20.75
2019-04-28T18:33:33.921Z,18.70
2019-04-28T18:36:10.506Z,20.82
2019-04-28T18:38:40.745Z,19.55
2019-04-28T18:41:22.978Z,23.20
2019-04-28T18:44:04.526Z,21.33
2019-04-28T18:46:33.277Z,21.55
2019-04-28T18:49:02.866Z,20.48
2019-04-28T18:51:32.691Z,24.13
2019-04-28T18:54:01.894Z,20.20
2019-04-28T18:56:30.605Z,20.10
2019-04-28T18:58:59.400Z,21.90
2019-04-28T19:01:41.752Z,21.02
2019-04-28T19:04:10.494Z,21.00
2019-04-28T19:06:40.041Z,22.13
2019-04-28T19:09:19.592Z,24.45
2019-04-28T19:11:50.766Z,25.45
2019-04-28T19:14:26.928Z,20.65
2019-04-28T19:16:57.164Z,21.70
2019-04-28T19:19:27.461Z,21.93
2019-04-28T19:21:57.193Z,24.10
2019-04-28T19:24:27.320Z,21.53
2019-04-28T19:26:55.995Z,22.77
2019-04-28T19:29:24.633Z,26.57
2019-04-28T19:31:53.286Z,23.77
2019-04-28T19:34:25.193Z,23.00
2019-04-28T19:36:53.926Z,24.32
2019-04-28T19:39:22.494Z,21.30
2019-04-28T19:41:51.091Z,22.77
2019-04-28T19:44:20.072Z,22.73
2019-04-28T19:46:48.634Z,24.50
2019-04-28T19:49:17.286Z,21.43
2019-04-28T19:51:46.020Z,21.43
2019-04-28T19:54:15.526Z,21.85
2019-04-28T19:56:51.877Z,22.07
2019-04-28T19:59:27.874Z,21.20
2019-04-28T20:01:56.544Z,21.82
2019-04-28T20:04:25.248Z,22.22
2019-04-28T20:06:53.814Z,19.70
2019-04-28T20:09:22.305Z,20.07
2019-04-28T20:11:50.898Z,21.20
2019-04-28T20:14:19.540Z,20.77
2019-04-28T20:16:48.097Z,21.52
2019-04-28T20:19:16.690Z,20.10
2019-04-28T20:21:45.386Z,20.43
2019-04-28T20:24:14.036Z,21.27
2019-04-28T20:26:42.621Z,20.60
2019-04-28T20:29:12.409Z,22.70
2019-04-28T20:31:40.938Z,21.70
2019-04-28T20:34:09.529Z,20.00
2019-04-28T20:36:56.001Z,21.80
2019-04-28T20:39:26.216Z,19.05
2019-04-28T20:41:55.408Z,20.68
2019-04-28T20:44:24.002Z,20.25
2019-04-28T20:46:52.588Z,19.25
2019-04-28T20:49:21.285Z,22.68
2019-04-28T20:51:55.855Z,21.47
2019-04-28T20:54:24.718Z,18.73
2019-04-28T20:56:53.283Z,17.45
2019-04-28T20:59:21.926Z,19.12
2019-04-28T21:01:50.457Z,17.83
2019-04-28T21:04:18.990Z,19.87
2019-04-28T21:06:47.489Z,18.42
2019-04-28T21:09:16.175Z,20.67
2019-04-28T21:11:45.251Z,18.70
2019-04-28T21:14:13.939Z,19.20
2019-04-28T21:16:42.656Z,18.90
2019-04-28T21:19:11.329Z,17.60
2019-04-28T21:21:39.953Z,19.02
2019-04-28T21:24:08.690Z,21.05
2019-04-28T21:26:37.279Z,18.20
2019-04-28T21:29:05.872Z,19.33
2019-04-28T21:31:34.510Z,19.93
2019-04-28T21:34:03.056Z,19.32
2019-04-28T21:36:31.541Z,17.77
2019-04-28T21:39:00.136Z,17.33
2019-04-28T21:41:28.691Z,18.23
2019-04-28T21:44:04.329Z,19.77
2019-04-28T21:46:35.424Z,17.90
2019-04-28T21:49:05.614Z,17.63
2019-04-28T21:51:42.711Z,18.57
2019-04-28T21:54:11.389Z,16.40
2019-04-28T21:56:39.955Z,16.73
2019-04-28T21:59:08.514Z,16.53
2019-04-28T22:01:37.413Z,16.45
2019-04-28T22:04:06.183Z,14.20
2019-04-28T22:06:34.909Z,14.83
2019-04-28T22:09:05.079Z,15.13
2019-04-28T22:11:52.907Z,15.97
2019-04-28T22:14:21.568Z,15.93
2019-04-28T22:16:50.120Z,15.17
2019-04-28T22:19:18.665Z,15.67
2019-04-28T22:21:47.263Z,15.10
2019-04-28T22:24:21.098Z,16.55
2019-04-28T22:26:51.343Z,16.07
2019-04-28T22:29:19.971Z,15.67
2019-04-28T22:31:48.535Z,16.03
2019-04-28T22:34:17.249Z,19.47
2019-04-28T22:36:46.971Z,14.33
2019-04-28T22:39:34.861Z,16.43
2019-04-28T22:42:03.416Z,14.27
2019-04-28T22:44:32.177Z,16.97
2019-04-28T22:47:00.702Z,16.77
2019-04-28T22:49:29.325Z,13.30
2019-04-28T22:51:57.960Z,15.93
2019-04-28T22:54:34.721Z,13.67
2019-04-28T22:57:21.323Z,15.60
2019-04-28T22:59:57.481Z,14.68
2019-04-28T23:02:27.226Z,12.80
2019-04-28T23:04:57.473Z,12.78
2019-04-28T23:07:26.008Z,12.43
2019-04-28T23:09:54.658Z,11.78
2019-04-28T23:12:23.301Z,12.83
2019-04-28T23:14:51.819Z,10.65
2019-04-28T23:17:20.821Z,11.77
2019-04-28T23:19:50.247Z,12.30
2019-04-28T23:22:20.437Z,12.80
2019-04-28T23:24:48.994Z,12.55
2019-04-28T23:27:18.480Z,14.27
2019-04-28T23:29:47.051Z,14.37
2019-04-28T23:32:15.855Z,13.35
2019-04-28T23:34:44.498Z,12.33
2019-04-28T23:37:13.130Z,13.20
2019-04-28T23:39:41.674Z,12.35
2019-04-28T23:42:18.613Z,12.33
2019-04-28T23:44:47.156Z,13.10
2019-04-28T23:47:16.286Z,10.86
2019-04-28T23:49:45.123Z,10.70
2019-04-28T23:52:24.258Z,11.13
2019-04-28T23:54:54.533Z,10.50
2019-04-28T23:57:23.115Z,9.67
2019-04-28T23:59:51.748Z,11.10
